sensor_id;sensor_type;location;lat;lon;timestamp;P1;durP1;ratioP1;P2;durP2;ratioP2
29634;SDS011;16557;54.762;56.068;2023-09-19T00:00:35;17.07;;;10.78;;
29634;SDS011;16557;54.762;56.068;2023-09-19T00:03:16;15.78;;;10.70;;
29634;SDS011;16557;54.762;56.068;2023-09-19T00:06:00;16.50;;;10.75;;
29634;SDS011;16557;54.762;56.068;2023-09-19T00:08:40;17.57;;;10.75;;
29634;SDS011;16557;54.762;56.068;2023-09-19T00:11:21;20.02;;;11.80;;
29634;SDS011;16557;54.762;56.068;2023-09-19T00:14:03;14.55;;;10.85;;
29634;SDS011;16557;54.762;56.068;2023-09-19T00:16:44;19.27;;;11.38;;
29634;SDS011;16557;54.762;56.068;2023-09-19T00:19:26;15.60;;;10.78;;
29634;SDS011;16557;54.762;56.068;2023-09-19T00:22:07;17.37;;;11.10;;
29634;SDS011;16557;54.762;56.068;2023-09-19T00:24:50;15.85;;;10.63;;
29634;SDS011;16557;54.762;56.068;2023-09-19T00:27:31;16.23;;;10.05;;
29634;SDS011;16557;54.762;56.068;2023-09-19T00:30:12;15.45;;;10.72;;
29634;SDS011;16557;54.762;56.068;2023-09-19T00:33:00;14.10;;;10.85;;
29634;SDS011;16557;54.762;56.068;2023-09-19T00:35:48;15.08;;;11.48;;
29634;SDS011;16557;54.762;56.068;2023-09-19T00:38:29;16.42;;;10.98;;
29634;SDS011;16557;54.762;56.068;2023-09-19T00:41:10;13.85;;;10.60;;
29634;SDS011;16557;54.762;56.068;2023-09-19T00:43:50;14.00;;;10.48;;
29634;SDS011;16557;54.762;56.068;2023-09-19T00:46:34;14.05;;;10.88;;
29634;SDS011;16557;54.762;56.068;2023-09-19T00:49:14;15.98;;;10.48;;
29634;SDS011;16557;54.762;56.068;2023-09-19T00:51:57;16.35;;;10.85;;
29634;SDS011;16557;54.762;56.068;2023-09-19T00:54:37;17.05;;;11.65;;
29634;SDS011;16557;54.762;56.068;2023-09-19T00:57:18;16.97;;;10.90;;
29634;SDS011;16557;54.762;56.068;2023-09-19T01:00:00;16.45;;;10.95;;
29634;SDS011;16557;54.762;56.068;2023-09-19T01:02:47;19.07;;;11.33;;
29634;SDS011;16557;54.762;56.068;2023-09-19T01:05:27;20.95;;;11.93;;
29634;SDS011;16557;54.762;56.068;2023-09-19T01:08:10;17.00;;;11.38;;
29634;SDS011;16557;54.762;56.068;2023-09-19T01:11:10;18.92;;;11.70;;
29634;SDS011;16557;54.762;56.068;2023-09-19T01:17:25;16.00;;;10.35;;
29634;SDS011;16557;54.762;56.068;2023-09-19T01:23:14;16.00;;;10.30;;
29634;SDS011;16557;54.762;56.068;2023-09-19T01:32:06;15.55;;;11.08;;
29634;SDS011;16557;54.762;56.068;2023-09-19T01:34:48;16.17;;;10.80;;
29634;SDS011;16557;54.762;56.068;2023-09-19T01:37:36;14.18;;;10.58;;
29634;SDS011;16557;54.762;56.068;2023-09-19T01:40:17;15.45;;;10.82;;
29634;SDS011;16557;54.762;56.068;2023-09-19T01:46:09;14.95;;;11.08;;
29634;SDS011;16557;54.762;56.068;2023-09-19T01:54:48;18.35;;;9.88;;
29634;SDS011;16557;54.762;56.068;2023-09-19T01:57:34;16.48;;;11.50;;
29634;SDS011;16557;54.762;56.068;2023-09-19T02:00:15;13.60;;;10.05;;
29634;SDS011;16557;54.762;56.068;2023-09-19T02:03:02;14.58;;;9.13;;
29634;SDS011;16557;54.762;56.068;2023-09-19T02:05:50;16.67;;;10.03;;
29634;SDS011;16557;54.762;56.068;2023-09-19T02:08:33;14.10;;;9.63;;
29634;SDS011;16557;54.762;56.068;2023-09-19T02:11:20;13.43;;;9.28;;
29634;SDS011;16557;54.762;56.068;2023-09-19T02:14:01;12.63;;;9.40;;
29634;SDS011;16557;54.762;56.068;2023-09-19T02:16:46;13.62;;;9.53;;
29634;SDS011;16557;54.762;56.068;2023-09-19T02:19:33;13.85;;;8.95;;
29634;SDS011;16557;54.762;56.068;2023-09-19T02:22:18;17.32;;;9.13;;
29634;SDS011;16557;54.762;56.068;2023-09-19T02:25:07;12.68;;;8.35;;
29634;SDS011;16557;54.762;56.068;2023-09-19T02:27:50;20.52;;;9.58;;
29634;SDS011;16557;54.762;56.068;2023-09-19T02:30:39;12.58;;;8.68;;
29634;SDS011;16557;54.762;56.068;2023-09-19T02:33:19;16.82;;;10.60;;
29634;SDS011;16557;54.762;56.068;2023-09-19T02:35:59;36.00;;;11.53;;
29634;SDS011;16557;54.762;56.068;2023-09-19T02:38:40;14.60;;;9.43;;
29634;SDS011;16557;54.762;56.068;2023-09-19T02:41:20;11.15;;;8.68;;
29634;SDS011;16557;54.762;56.068;2023-09-19T02:44:00;13.18;;;9.33;;
29634;SDS011;16557;54.762;56.068;2023-09-19T02:46:44;13.93;;;8.33;;
29634;SDS011;16557;54.762;56.068;2023-09-19T02:49:25;24.12;;;9.48;;
29634;SDS011;16557;54.762;56.068;2023-09-19T02:52:09;21.07;;;9.40;;
29634;SDS011;16557;54.762;56.068;2023-09-19T02:54:50;16.70;;;9.20;;
29634;SDS011;16557;54.762;56.068;2023-09-19T02:57:31;17.12;;;9.70;;
29634;SDS011;16557;54.762;56.068;2023-09-19T03:00:18;23.32;;;10.10;;
29634;SDS011;16557;54.762;56.068;2023-09-19T03:03:02;14.23;;;10.28;;
29634;SDS011;16557;54.762;56.068;2023-09-19T03:05:44;24.10;;;10.60;;
29634;SDS011;16557;54.762;56.068;2023-09-19T03:08:24;22.93;;;10.63;;
29634;SDS011;16557;54.762;56.068;2023-09-19T03:11:05;19.00;;;11.03;;
29634;SDS011;16557;54.762;56.068;2023-09-19T03:16:31;17.98;;;10.23;;
29634;SDS011;16557;54.762;56.068;2023-09-19T03:19:17;18.42;;;10.13;;
29634;SDS011;16557;54.762;56.068;2023-09-19T03:22:00;17.92;;;9.93;;
29634;SDS011;16557;54.762;56.068;2023-09-19T03:24:40;15.35;;;12.80;;
29634;SDS011;16557;54.762;56.068;2023-09-19T03:27:21;15.20;;;10.15;;
29634;SDS011;16557;54.762;56.068;2023-09-19T03:30:01;21.50;;;12.00;;
29634;SDS011;16557;54.762;56.068;2023-09-19T03:32:50;16.25;;;11.50;;
29634;SDS011;16557;54.762;56.068;2023-09-19T03:35:30;20.30;;;13.08;;
29634;SDS011;16557;54.762;56.068;2023-09-19T03:38:11;18.65;;;12.18;;
29634;SDS011;16557;54.762;56.068;2023-09-19T03:40:51;19.30;;;12.35;;
29634;SDS011;16557;54.762;56.068;2023-09-19T03:43:37;22.75;;;12.88;;
29634;SDS011;16557;54.762;56.068;2023-09-19T03:46:21;24.37;;;12.50;;
29634;SDS011;16557;54.762;56.068;2023-09-19T03:49:01;19.40;;;10.95;;
29634;SDS011;16557;54.762;56.068;2023-09-19T03:51:41;22.48;;;10.63;;
29634;SDS011;16557;54.762;56.068;2023-09-19T03:54:21;26.00;;;10.53;;
29634;SDS011;16557;54.762;56.068;2023-09-19T03:57:01;20.02;;;10.88;;
29634;SDS011;16557;54.762;56.068;2023-09-19T03:59:42;17.60;;;11.22;;
29634;SDS011;16557;54.762;56.068;2023-09-19T04:02:22;22.65;;;12.25;;
29634;SDS011;16557;54.762;56.068;2023-09-19T04:05:02;21.33;;;11.60;;
29634;SDS011;16557;54.762;56.068;2023-09-19T04:07:49;22.20;;;11.80;;
29634;SDS011;16557;54.762;56.068;2023-09-19T04:10:29;19.60;;;9.80;;
29634;SDS011;16557;54.762;56.068;2023-09-19T04:13:09;16.75;;;9.70;;
29634;SDS011;16557;54.762;56.068;2023-09-19T04:15:50;15.95;;;8.88;;
29634;SDS011;16557;54.762;56.068;2023-09-19T04:18:31;15.72;;;9.00;;
29634;SDS011;16557;54.762;56.068;2023-09-19T04:21:14;14.00;;;8.50;;
29634;SDS011;16557;54.762;56.068;2023-09-19T04:23:54;22.15;;;9.05;;
29634;SDS011;16557;54.762;56.068;2023-09-19T04:26:38;16.42;;;9.70;;
29634;SDS011;16557;54.762;56.068;2023-09-19T04:29:20;17.98;;;10.63;;
29634;SDS011;16557;54.762;56.068;2023-09-19T04:32:00;18.32;;;9.83;;
29634;SDS011;16557;54.762;56.068;2023-09-19T04:34:42;15.10;;;8.48;;
29634;SDS011;16557;54.762;56.068;2023-09-19T04:37:22;21.25;;;8.20;;
29634;SDS011;16557;54.762;56.068;2023-09-19T04:40:02;13.65;;;7.72;;
29634;SDS011;16557;54.762;56.068;2023-09-19T04:42:44;13.53;;;8.15;;
29634;SDS011;16557;54.762;56.068;2023-09-19T04:45:25;11.70;;;8.38;;
29634;SDS011;16557;54.762;56.068;2023-09-19T04:48:07;16.07;;;8.50;;
29634;SDS011;16557;54.762;56.068;2023-09-19T04:50:53;15.10;;;9.57;;
29634;SDS011;16557;54.762;56.068;2023-09-19T04:53:33;12.68;;;9.80;;
29634;SDS011;16557;54.762;56.068;2023-09-19T04:56:33;16.60;;;7.83;;
29634;SDS011;16557;54.762;56.068;2023-09-19T04:59:20;13.48;;;8.63;;
29634;SDS011;16557;54.762;56.068;2023-09-19T05:02:07;14.07;;;8.48;;
29634;SDS011;16557;54.762;56.068;2023-09-19T05:04:46;9.20;;;5.95;;
29634;SDS011;16557;54.762;56.068;2023-09-19T05:07:27;10.40;;;5.92;;
29634;SDS011;16557;54.762;56.068;2023-09-19T05:10:08;17.32;;;6.53;;
29634;SDS011;16557;54.762;56.068;2023-09-19T05:12:54;9.73;;;6.83;;
29634;SDS011;16557;54.762;56.068;2023-09-19T05:15:35;11.80;;;6.65;;
29634;SDS011;16557;54.762;56.068;2023-09-19T05:18:14;8.30;;;6.62;;
29634;SDS011;16557;54.762;56.068;2023-09-19T05:20:54;14.28;;;6.08;;
29634;SDS011;16557;54.762;56.068;2023-09-19T05:23:34;11.15;;;6.17;;
29634;SDS011;16557;54.762;56.068;2023-09-19T05:26:19;15.83;;;6.55;;
29634;SDS011;16557;54.762;56.068;2023-09-19T05:28:59;19.50;;;6.53;;
29634;SDS011;16557;54.762;56.068;2023-09-19T05:31:46;14.18;;;6.15;;
29634;SDS011;16557;54.762;56.068;2023-09-19T05:34:28;12.00;;;6.25;;
29634;SDS011;16557;54.762;56.068;2023-09-19T05:37:12;14.30;;;9.18;;
29634;SDS011;16557;54.762;56.068;2023-09-19T05:39:54;10.18;;;5.85;;
29634;SDS011;16557;54.762;56.068;2023-09-19T05:42:35;14.65;;;6.50;;
29634;SDS011;16557;54.762;56.068;2023-09-19T05:45:21;15.20;;;6.35;;
29634;SDS011;16557;54.762;56.068;2023-09-19T05:48:08;12.25;;;6.72;;
29634;SDS011;16557;54.762;56.068;2023-09-19T05:50:59;19.35;;;6.45;;
29634;SDS011;16557;54.762;56.068;2023-09-19T05:53:45;9.58;;;6.45;;
29634;SDS011;16557;54.762;56.068;2023-09-19T05:56:26;9.13;;;6.00;;
29634;SDS011;16557;54.762;56.068;2023-09-19T05:59:06;9.83;;;5.87;;
29634;SDS011;16557;54.762;56.068;2023-09-19T06:01:46;30.80;;;22.58;;
29634;SDS011;16557;54.762;56.068;2023-09-19T06:04:26;26.17;;;17.82;;
29634;SDS011;16557;54.762;56.068;2023-09-19T06:07:06;11.73;;;8.08;;
29634;SDS011;16557;54.762;56.068;2023-09-19T06:09:46;10.80;;;7.08;;
29634;SDS011;16557;54.762;56.068;2023-09-19T06:12:27;11.88;;;7.22;;
29634;SDS011;16557;54.762;56.068;2023-09-19T06:15:08;9.98;;;6.47;;
29634;SDS011;16557;54.762;56.068;2023-09-19T06:17:51;11.12;;;5.80;;
29634;SDS011;16557;54.762;56.068;2023-09-19T06:20:35;11.25;;;6.65;;
29634;SDS011;16557;54.762;56.068;2023-09-19T06:23:15;11.75;;;5.12;;
29634;SDS011;16557;54.762;56.068;2023-09-19T06:25:55;11.53;;;5.72;;
29634;SDS011;16557;54.762;56.068;2023-09-19T06:28:35;18.62;;;6.20;;
29634;SDS011;16557;54.762;56.068;2023-09-19T06:31:15;9.08;;;5.33;;
29634;SDS011;16557;54.762;56.068;2023-09-19T06:33:58;12.37;;;5.85;;
29634;SDS011;16557;54.762;56.068;2023-09-19T06:36:37;14.80;;;6.25;;
29634;SDS011;16557;54.762;56.068;2023-09-19T06:39:23;17.20;;;5.55;;
29634;SDS011;16557;54.762;56.068;2023-09-19T06:42:04;12.88;;;5.85;;
29634;SDS011;16557;54.762;56.068;2023-09-19T06:44:44;11.55;;;5.58;;
29634;SDS011;16557;54.762;56.068;2023-09-19T06:47:30;13.05;;;5.95;;
29634;SDS011;16557;54.762;56.068;2023-09-19T06:50:10;17.98;;;6.30;;
29634;SDS011;16557;54.762;56.068;2023-09-19T06:52:55;18.80;;;5.22;;
29634;SDS011;16557;54.762;56.068;2023-09-19T06:55:42;9.10;;;4.65;;
29634;SDS011;16557;54.762;56.068;2023-09-19T06:58:23;8.28;;;4.90;;
29634;SDS011;16557;54.762;56.068;2023-09-19T07:01:03;7.50;;;4.58;;
29634;SDS011;16557;54.762;56.068;2023-09-19T07:03:42;11.45;;;4.87;;
29634;SDS011;16557;54.762;56.068;2023-09-19T07:06:30;11.45;;;4.60;;
29634;SDS011;16557;54.762;56.068;2023-09-19T07:09:10;10.82;;;4.95;;
29634;SDS011;16557;54.762;56.068;2023-09-19T07:11:57;13.15;;;7.30;;
29634;SDS011;16557;54.762;56.068;2023-09-19T07:14:37;14.80;;;5.35;;
29634;SDS011;16557;54.762;56.068;2023-09-19T07:17:17;8.08;;;4.55;;
29634;SDS011;16557;54.762;56.068;2023-09-19T07:19:57;7.80;;;4.92;;
29634;SDS011;16557;54.762;56.068;2023-09-19T07:22:37;10.18;;;4.75;;
29634;SDS011;16557;54.762;56.068;2023-09-19T07:25:18;6.97;;;4.25;;
29634;SDS011;16557;54.762;56.068;2023-09-19T07:28:07;8.65;;;4.42;;
29634;SDS011;16557;54.762;56.068;2023-09-19T07:30:53;10.50;;;4.80;;
29634;SDS011;16557;54.762;56.068;2023-09-19T07:33:39;8.10;;;4.80;;
29634;SDS011;16557;54.762;56.068;2023-09-19T07:36:20;10.82;;;4.87;;
29634;SDS011;16557;54.762;56.068;2023-09-19T07:39:08;6.95;;;4.53;;
29634;SDS011;16557;54.762;56.068;2023-09-19T07:41:48;11.80;;;4.40;;
29634;SDS011;16557;54.762;56.068;2023-09-19T07:44:37;10.25;;;5.22;;
29634;SDS011;16557;54.762;56.068;2023-09-19T07:47:16;10.58;;;5.08;;
29634;SDS011;16557;54.762;56.068;2023-09-19T07:50:03;10.55;;;4.90;;
29634;SDS011;16557;54.762;56.068;2023-09-19T07:52:51;11.80;;;4.40;;
29634;SDS011;16557;54.762;56.068;2023-09-19T07:55:38;13.00;;;4.67;;
29634;SDS011;16557;54.762;56.068;2023-09-19T07:58:19;20.23;;;5.22;;
29634;SDS011;16557;54.762;56.068;2023-09-19T08:01:07;8.48;;;3.90;;
29634;SDS011;16557;54.762;56.068;2023-09-19T08:03:48;10.00;;;4.70;;
29634;SDS011;16557;54.762;56.068;2023-09-19T08:06:28;12.75;;;5.00;;
29634;SDS011;16557;54.762;56.068;2023-09-19T08:09:14;11.30;;;5.83;;
29634;SDS011;16557;54.762;56.068;2023-09-19T08:12:01;16.93;;;8.55;;
29634;SDS011;16557;54.762;56.068;2023-09-19T08:14:43;16.25;;;6.15;;
29634;SDS011;16557;54.762;56.068;2023-09-19T08:17:24;8.65;;;5.10;;
29634;SDS011;16557;54.762;56.068;2023-09-19T08:20:05;9.35;;;5.10;;
29634;SDS011;16557;54.762;56.068;2023-09-19T08:22:49;8.23;;;4.92;;
29634;SDS011;16557;54.762;56.068;2023-09-19T08:25:31;6.95;;;5.30;;
29634;SDS011;16557;54.762;56.068;2023-09-19T08:28:11;7.55;;;5.03;;
29634;SDS011;16557;54.762;56.068;2023-09-19T08:30:53;7.35;;;5.28;;
29634;SDS011;16557;54.762;56.068;2023-09-19T08:33:33;8.48;;;5.17;;
29634;SDS011;16557;54.762;56.068;2023-09-19T08:36:18;11.83;;;5.55;;
29634;SDS011;16557;54.762;56.068;2023-09-19T08:38:58;12.98;;;6.08;;
29634;SDS011;16557;54.762;56.068;2023-09-19T08:41:38;11.60;;;5.70;;
29634;SDS011;16557;54.762;56.068;2023-09-19T08:44:23;12.13;;;7.90;;
29634;SDS011;16557;54.762;56.068;2023-09-19T08:47:09;9.23;;;5.47;;
29634;SDS011;16557;54.762;56.068;2023-09-19T08:50:01;11.00;;;5.55;;
29634;SDS011;16557;54.762;56.068;2023-09-19T08:52:51;11.43;;;5.95;;
29634;SDS011;16557;54.762;56.068;2023-09-19T08:55:32;7.50;;;5.50;;
29634;SDS011;16557;54.762;56.068;2023-09-19T08:58:15;8.63;;;6.05;;
29634;SDS011;16557;54.762;56.068;2023-09-19T09:00:57;7.85;;;5.35;;
29634;SDS011;16557;54.762;56.068;2023-09-19T09:03:39;11.75;;;6.00;;
29634;SDS011;16557;54.762;56.068;2023-09-19T09:06:21;11.45;;;5.97;;
29634;SDS011;16557;54.762;56.068;2023-09-19T09:09:02;17.45;;;6.65;;
29634;SDS011;16557;54.762;56.068;2023-09-19T09:11:42;11.75;;;6.90;;
29634;SDS011;16557;54.762;56.068;2023-09-19T09:14:27;25.40;;;18.77;;
29634;SDS011;16557;54.762;56.068;2023-09-19T09:17:08;13.10;;;6.08;;
29634;SDS011;16557;54.762;56.068;2023-09-19T09:19:48;8.65;;;4.58;;
29634;SDS011;16557;54.762;56.068;2023-09-19T09:22:29;7.03;;;4.35;;
29634;SDS011;16557;54.762;56.068;2023-09-19T09:25:10;8.28;;;4.47;;
29634;SDS011;16557;54.762;56.068;2023-09-19T09:28:00;10.18;;;3.75;;
29634;SDS011;16557;54.762;56.068;2023-09-19T09:30:47;9.20;;;3.47;;
29634;SDS011;16557;54.762;56.068;2023-09-19T09:33:28;6.85;;;3.10;;
29634;SDS011;16557;54.762;56.068;2023-09-19T09:36:08;7.80;;;3.75;;
29634;SDS011;16557;54.762;56.068;2023-09-19T09:38:50;10.03;;;4.03;;
29634;SDS011;16557;54.762;56.068;2023-09-19T09:41:36;7.55;;;2.87;;
29634;SDS011;16557;54.762;56.068;2023-09-19T09:44:23;5.50;;;2.45;;
29634;SDS011;16557;54.762;56.068;2023-09-19T09:47:05;7.62;;;2.90;;
29634;SDS011;16557;54.762;56.068;2023-09-19T09:50:04;6.47;;;2.62;;
29634;SDS011;16557;54.762;56.068;2023-09-19T09:52:48;7.30;;;2.35;;
29634;SDS011;16557;54.762;56.068;2023-09-19T09:55:28;4.25;;;2.30;;
29634;SDS011;16557;54.762;56.068;2023-09-19T09:58:18;5.72;;;2.42;;
29634;SDS011;16557;54.762;56.068;2023-09-19T10:00:59;4.78;;;2.10;;
29634;SDS011;16557;54.762;56.068;2023-09-19T10:03:41;5.00;;;2.22;;
29634;SDS011;16557;54.762;56.068;2023-09-19T10:06:24;5.33;;;2.27;;
29634;SDS011;16557;54.762;56.068;2023-09-19T10:09:09;4.62;;;2.30;;
29634;SDS011;16557;54.762;56.068;2023-09-19T10:12:00;7.97;;;2.70;;
29634;SDS011;16557;54.762;56.068;2023-09-19T10:14:47;14.55;;;7.47;;
29634;SDS011;16557;54.762;56.068;2023-09-19T10:17:35;5.55;;;2.47;;
29634;SDS011;16557;54.762;56.068;2023-09-19T10:20:19;8.90;;;4.40;;
29634;SDS011;16557;54.762;56.068;2023-09-19T10:23:11;5.03;;;2.20;;
29634;SDS011;16557;54.762;56.068;2023-09-19T10:25:52;6.83;;;2.62;;
29634;SDS011;16557;54.762;56.068;2023-09-19T10:28:36;6.92;;;2.83;;
29634;SDS011;16557;54.762;56.068;2023-09-19T10:31:18;4.83;;;2.33;;
29634;SDS011;16557;54.762;56.068;2023-09-19T10:34:02;6.00;;;2.75;;
29634;SDS011;16557;54.762;56.068;2023-09-19T10:36:46;8.75;;;2.70;;
29634;SDS011;16557;54.762;56.068;2023-09-19T10:39:26;8.70;;;2.92;;
29634;SDS011;16557;54.762;56.068;2023-09-19T10:42:09;11.18;;;2.92;;
29634;SDS011;16557;54.762;56.068;2023-09-19T10:45:00;8.18;;;2.45;;
29634;SDS011;16557;54.762;56.068;2023-09-19T10:47:41;5.20;;;3.10;;
29634;SDS011;16557;54.762;56.068;2023-09-19T10:50:23;14.50;;;3.05;;
29634;SDS011;16557;54.762;56.068;2023-09-19T10:53:04;11.03;;;2.80;;
29634;SDS011;16557;54.762;56.068;2023-09-19T10:55:54;8.55;;;2.50;;
29634;SDS011;16557;54.762;56.068;2023-09-19T10:58:31;6.97;;;2.70;;
29634;SDS011;16557;54.762;56.068;2023-09-19T11:01:16;4.87;;;2.67;;
29634;SDS011;16557;54.762;56.068;2023-09-19T11:07:12;5.80;;;2.30;;
29634;SDS011;16557;54.762;56.068;2023-09-19T11:09:53;10.53;;;2.40;;
29634;SDS011;16557;54.762;56.068;2023-09-19T11:27:10;13.05;;;9.80;;
29634;SDS011;16557;54.762;56.068;2023-09-19T11:29:51;5.30;;;4.08;;
29634;SDS011;16557;54.762;56.068;2023-09-19T11:33:15;8.93;;;3.50;;
29634;SDS011;16557;54.762;56.068;2023-09-19T11:41:38;12.78;;;3.55;;
29634;SDS011;16557;54.762;56.068;2023-09-19T11:47:12;5.72;;;1.77;;
29634;SDS011;16557;54.762;56.068;2023-09-19T11:49:52;10.60;;;2.67;;
29634;SDS011;16557;54.762;56.068;2023-09-19T11:52:32;6.60;;;2.00;;
29634;SDS011;16557;54.762;56.068;2023-09-19T11:55:13;4.50;;;1.60;;
29634;SDS011;16557;54.762;56.068;2023-09-19T11:57:55;9.63;;;1.85;;
29634;SDS011;16557;54.762;56.068;2023-09-19T12:00:36;4.28;;;2.40;;
29634;SDS011;16557;54.762;56.068;2023-09-19T12:03:19;5.72;;;2.17;;
29634;SDS011;16557;54.762;56.068;2023-09-19T12:06:00;13.93;;;2.83;;
29634;SDS011;16557;54.762;56.068;2023-09-19T12:08:41;6.72;;;2.25;;
29634;SDS011;16557;54.762;56.068;2023-09-19T12:11:23;10.70;;;2.45;;
29634;SDS011;16557;54.762;56.068;2023-09-19T12:14:06;11.63;;;2.75;;
29634;SDS011;16557;54.762;56.068;2023-09-19T12:16:50;9.98;;;2.00;;
29634;SDS011;16557;54.762;56.068;2023-09-19T12:19:33;4.67;;;2.17;;
29634;SDS011;16557;54.762;56.068;2023-09-19T12:22:13;10.88;;;2.10;;
29634;SDS011;16557;54.762;56.068;2023-09-19T12:24:53;7.70;;;2.10;;
29634;SDS011;16557;54.762;56.068;2023-09-19T12:27:44;8.18;;;2.00;;
29634;SDS011;16557;54.762;56.068;2023-09-19T12:30:28;7.42;;;2.35;;
29634;SDS011;16557;54.762;56.068;2023-09-19T12:35:57;4.72;;;1.77;;
29634;SDS011;16557;54.762;56.068;2023-09-19T12:38:37;11.48;;;2.20;;
29634;SDS011;16557;54.762;56.068;2023-09-19T12:41:19;8.03;;;2.10;;
29634;SDS011;16557;54.762;56.068;2023-09-19T12:44:01;11.60;;;2.02;;
29634;SDS011;16557;54.762;56.068;2023-09-19T12:46:49;6.05;;;2.00;;
29634;SDS011;16557;54.762;56.068;2023-09-19T12:49:29;10.15;;;4.37;;
29634;SDS011;16557;54.762;56.068;2023-09-19T12:52:09;5.10;;;2.30;;
29634;SDS011;16557;54.762;56.068;2023-09-19T12:54:49;6.70;;;2.60;;
29634;SDS011;16557;54.762;56.068;2023-09-19T12:57:29;7.42;;;1.80;;
29634;SDS011;16557;54.762;56.068;2023-09-19T13:00:11;4.17;;;2.10;;
29634;SDS011;16557;54.762;56.068;2023-09-19T13:05:59;9.38;;;4.15;;
29634;SDS011;16557;54.762;56.068;2023-09-19T13:08:42;7.50;;;4.17;;
29634;SDS011;16557;54.762;56.068;2023-09-19T13:11:35;4.75;;;1.98;;
29634;SDS011;16557;54.762;56.068;2023-09-19T13:14:16;10.38;;;2.37;;
29634;SDS011;16557;54.762;56.068;2023-09-19T13:17:04;5.37;;;1.80;;
29634;SDS011;16557;54.762;56.068;2023-09-19T13:19:55;6.58;;;2.12;;
29634;SDS011;16557;54.762;56.068;2023-09-19T13:22:45;4.97;;;2.05;;
29634;SDS011;16557;54.762;56.068;2023-09-19T13:25:26;7.22;;;2.27;;
29634;SDS011;16557;54.762;56.068;2023-09-19T13:28:08;36.73;;;27.20;;
29634;SDS011;16557;54.762;56.068;2023-09-19T13:30:52;7.83;;;4.25;;
29634;SDS011;16557;54.762;56.068;2023-09-19T13:33:44;15.15;;;8.10;;
29634;SDS011;16557;54.762;56.068;2023-09-19T13:36:24;6.40;;;2.40;;
29634;SDS011;16557;54.762;56.068;2023-09-19T13:39:06;8.53;;;3.10;;
29634;SDS011;16557;54.762;56.068;2023-09-19T13:41:47;10.58;;;6.03;;
29634;SDS011;16557;54.762;56.068;2023-09-19T13:44:27;5.70;;;2.50;;
29634;SDS011;16557;54.762;56.068;2023-09-19T13:47:08;7.45;;;2.02;;
29634;SDS011;16557;54.762;56.068;2023-09-19T13:49:48;5.03;;;2.05;;
29634;SDS011;16557;54.762;56.068;2023-09-19T13:52:33;8.18;;;2.25;;
29634;SDS011;16557;54.762;56.068;2023-09-19T13:55:12;9.65;;;2.25;;
29634;SDS011;16557;54.762;56.068;2023-09-19T13:57:54;12.88;;;2.10;;
29634;SDS011;16557;54.762;56.068;2023-09-19T14:00:48;6.83;;;1.95;;
29634;SDS011;16557;54.762;56.068;2023-09-19T14:03:29;5.22;;;2.27;;
29634;SDS011;16557;54.762;56.068;2023-09-19T14:06:09;8.58;;;2.67;;
29634;SDS011;16557;54.762;56.068;2023-09-19T14:08:56;7.30;;;1.77;;
29634;SDS011;16557;54.762;56.068;2023-09-19T14:11:35;4.33;;;1.60;;
29634;SDS011;16557;54.762;56.068;2023-09-19T14:14:15;5.72;;;2.00;;
29634;SDS011;16557;54.762;56.068;2023-09-19T14:17:03;3.00;;;1.80;;
29634;SDS011;16557;54.762;56.068;2023-09-19T14:19:45;7.35;;;2.25;;
29634;SDS011;16557;54.762;56.068;2023-09-19T14:22:24;30.32;;;3.00;;
29634;SDS011;16557;54.762;56.068;2023-09-19T14:25:04;15.63;;;2.12;;
29634;SDS011;16557;54.762;56.068;2023-09-19T14:27:49;5.92;;;2.17;;
29634;SDS011;16557;54.762;56.068;2023-09-19T14:30:29;5.22;;;1.22;;
29634;SDS011;16557;54.762;56.068;2023-09-19T14:33:09;17.00;;;2.52;;
29634;SDS011;16557;54.762;56.068;2023-09-19T14:35:49;7.35;;;1.50;;
29634;SDS011;16557;54.762;56.068;2023-09-19T14:38:29;3.85;;;1.50;;
29634;SDS011;16557;54.762;56.068;2023-09-19T14:41:11;6.50;;;1.52;;
29634;SDS011;16557;54.762;56.068;2023-09-19T14:43:51;10.32;;;1.77;;
29634;SDS011;16557;54.762;56.068;2023-09-19T14:46:32;5.53;;;2.10;;
29634;SDS011;16557;54.762;56.068;2023-09-19T14:49:20;9.20;;;2.15;;
29634;SDS011;16557;54.762;56.068;2023-09-19T14:52:00;2.75;;;1.22;;
29634;SDS011;16557;54.762;56.068;2023-09-19T14:54:41;6.72;;;2.20;;
29634;SDS011;16557;54.762;56.068;2023-09-19T14:57:21;10.15;;;1.72;;
29634;SDS011;16557;54.762;56.068;2023-09-19T15:00:04;7.10;;;1.80;;
29634;SDS011;16557;54.762;56.068;2023-09-19T15:02:46;6.08;;;1.98;;
29634;SDS011;16557;54.762;56.068;2023-09-19T15:05:28;6.05;;;2.12;;
29634;SDS011;16557;54.762;56.068;2023-09-19T15:08:08;8.15;;;1.98;;
29634;SDS011;16557;54.762;56.068;2023-09-19T15:10:49;5.12;;;1.82;;
29634;SDS011;16557;54.762;56.068;2023-09-19T15:13:32;7.10;;;2.02;;
29634;SDS011;16557;54.762;56.068;2023-09-19T15:16:13;4.53;;;1.70;;
29634;SDS011;16557;54.762;56.068;2023-09-19T15:19:00;9.95;;;1.60;;
29634;SDS011;16557;54.762;56.068;2023-09-19T15:21:46;5.25;;;1.92;;
29634;SDS011;16557;54.762;56.068;2023-09-19T15:24:26;6.15;;;1.87;;
29634;SDS011;16557;54.762;56.068;2023-09-19T15:27:07;7.92;;;1.65;;
29634;SDS011;16557;54.762;56.068;2023-09-19T15:29:47;7.67;;;3.02;;
29634;SDS011;16557;54.762;56.068;2023-09-19T15:32:27;9.93;;;2.40;;
29634;SDS011;16557;54.762;56.068;2023-09-19T15:35:07;6.65;;;2.00;;
29634;SDS011;16557;54.762;56.068;2023-09-19T15:37:49;8.45;;;2.33;;
29634;SDS011;16557;54.762;56.068;2023-09-19T15:40:30;5.25;;;2.02;;
29634;SDS011;16557;54.762;56.068;2023-09-19T15:43:11;7.70;;;2.58;;
29634;SDS011;16557;54.762;56.068;2023-09-19T15:45:57;9.48;;;4.20;;
29634;SDS011;16557;54.762;56.068;2023-09-19T15:48:45;5.28;;;2.22;;
29634;SDS011;16557;54.762;56.068;2023-09-19T15:51:27;6.90;;;2.50;;
29634;SDS011;16557;54.762;56.068;2023-09-19T15:54:09;12.55;;;2.92;;
29634;SDS011;16557;54.762;56.068;2023-09-19T15:56:53;5.85;;;2.67;;
29634;SDS011;16557;54.762;56.068;2023-09-19T15:59:33;8.73;;;3.17;;
29634;SDS011;16557;54.762;56.068;2023-09-19T16:02:15;13.45;;;4.20;;
29634;SDS011;16557;54.762;56.068;2023-09-19T16:04:55;8.20;;;3.37;;
29634;SDS011;16557;54.762;56.068;2023-09-19T16:07:35;8.85;;;3.15;;
29634;SDS011;16557;54.762;56.068;2023-09-19T16:10:36;9.55;;;3.90;;
29634;SDS011;16557;54.762;56.068;2023-09-19T16:13:16;10.08;;;3.37;;
29634;SDS011;16557;54.762;56.068;2023-09-19T16:15:56;7.53;;;3.12;;
29634;SDS011;16557;54.762;56.068;2023-09-19T16:18:36;11.78;;;4.10;;
29634;SDS011;16557;54.762;56.068;2023-09-19T16:21:17;8.13;;;3.50;;
29634;SDS011;16557;54.762;56.068;2023-09-19T16:24:00;6.20;;;3.10;;
29634;SDS011;16557;54.762;56.068;2023-09-19T16:26:40;5.12;;;2.95;;
29634;SDS011;16557;54.762;56.068;2023-09-19T16:29:20;7.25;;;2.75;;
29634;SDS011;16557;54.762;56.068;2023-09-19T16:32:02;6.30;;;2.72;;
29634;SDS011;16557;54.762;56.068;2023-09-19T16:34:41;8.63;;;2.60;;
29634;SDS011;16557;54.762;56.068;2023-09-19T16:37:26;6.75;;;2.58;;
29634;SDS011;16557;54.762;56.068;2023-09-19T16:40:07;6.08;;;2.85;;
29634;SDS011;16557;54.762;56.068;2023-09-19T16:42:47;8.93;;;2.55;;
29634;SDS011;16557;54.762;56.068;2023-09-19T16:45:27;8.95;;;5.95;;
29634;SDS011;16557;54.762;56.068;2023-09-19T16:48:08;11.80;;;3.55;;
29634;SDS011;16557;54.762;56.068;2023-09-19T16:50:54;10.37;;;5.63;;